Карточка аэропорта UAKK

Внимание!
Информация на этой странице в стадии наполнения.
Если вы не увидели какой-то информации, или заметили неточность - пожалуйста сообщите нам!
Спасибо!
Команда RU-STAFF
Название аэропортаКараганда
Название аэропорта (англ.)Karaganda
Превышение1768 ft. (538.9 m.)
Координаты49°40.302', 73°20.118'
Высота перехода10000
Эшелон переходаby ATC
Коды ответчика0630-0637, 7220-7227
Зона ОрВДАстана РПИ (UACN)
Данные METARUAKK 160930Z 21002MPS CAVOK 15/00 Q1020 NOSIG RMK QFE717/0957
Проноз погоды (TAF)UAKK 160500Z 1606/1706 26005MPS 9999 BKN011 BKN030 TX17/1610Z TN04/1623Z TEMPO 1615/1624 20005MPS BECMG 1700/1702 23008MPS TEMPO 1700/1706 3100 -RA BR BKN007
NOTAMshow/hide NOTAM
AWOS   TABLE

Информация о ВПП

ВПП Длина ВПП (м.) Покрытие Курс ВПП Частота ILS
053601Железобетон50109.9
233601Железобетон230111.7

Диспетчерские позиции




Спутниковое изображение